| time (UTC) | temp F | wind direction | speed knots | gust knots | rain 1hr in | rain 24hr in | rain mn in | humidity % | barometer mb |
| 20260508121537 | 44 | 174 | 2.6 | 6.1 | 0.00 | 0.02 | 0.02 | 63 | 1023.4 |
| 20260508120034 | 44 | 138 | 4.3 | 8.7 | 0.00 | 0.02 | 0.02 | 60 | 1023.4 |
| 20260508114531 | 44 | 154 | 3.5 | 7.0 | 0.00 | 0.02 | 0.02 | 63 | 1023.4 |
| 20260508113029 | 44 | 125 | 1.7 | 7.0 | 0.00 | 0.02 | 0.02 | 66 | 1023.5 |
| 20260508111526 | 43 | 153 | 3.5 | 5.2 | 0.00 | 0.02 | 0.02 | 77 | 1023.5 |
| 20260508110031 | 40 | 22 | 3.5 | 7.0 | 0.00 | 0.02 | 0.02 | 78 | 1023.5 |
| 20260508104523 | 39 | 15 | 2.6 | 4.3 | 0.00 | 0.02 | 0.02 | 81 | 1023.6 |
| 20260508103037 | 38 | 3 | 3.5 | 6.1 | 0.00 | 0.02 | 0.02 | 84 | 1023.5 |
| 20260508101522 | 36 | 300 | 4.3 | 15.6 | 0.00 | 0.02 | 0.02 | 90 | 1023.5 |
| 20260508100023 | 35 | 295 | 6.1 | 15.6 | 0.00 | 0.02 | 0.02 | 91 | 1023.4 |
| 20260508094519 | 36 | 287 | 9.6 | 15.6 | 0.00 | 0.02 | 0.02 | 84 | 1023.3 |
| 20260508093019 | 41 | 245 | 2.6 | 6.1 | 0.00 | 0.02 | 0.02 | 74 | 1023.1 |
| 20260508091516 | 42 | 167 | 2.6 | 7.0 | 0.00 | 0.02 | 0.02 | 76 | 1023.0 |
| 20260508090013 | 40 | 86 | 0.9 | 6.1 | 0.00 | 0.02 | 0.02 | 83 | 1023.0 |
| 20260508084511 | 39 | 192 | 0.9 | 6.1 | 0.00 | 0.02 | 0.02 | 83 | 1023.0 |
| 20260508083010 | 40 | 140 | 2.6 | 9.6 | 0.01 | 0.02 | 0.02 | 81 | 1022.9 |
| 20260508081507 | 40 | 225 | 3.5 | 9.6 | 0.02 | 0.02 | 0.02 | 81 | 1022.8 |
| 20260508080004 | 38 | 246 | 4.3 | 9.6 | 0.02 | 0.02 | 0.02 | 86 | 1022.7 |
| 20260508074503 | 36 | 287 | 1.7 | 9.6 | 0.01 | 0.02 | 0.02 | 90 | 1022.7 |
| 20260508073002 | 37 | 269 | 2.6 | 7.8 | 0.00 | 0.01 | 0.01 | 87 | 1022.7 |
| 20260508071601 | 37 | 321 | 0.9 | 7.8 | 0.00 | 0.01 | 0.01 | 88 | 1022.5 |
| 20260508070059 | 36 | 327 | 2.6 | 7.8 | 0.00 | 0.01 | 0.01 | 90 | 1022.4 |
| 20260508064557 | 36 | 326 | 1.7 | 7.8 | 0.00 | 0.01 | 0.01 | 91 | 1022.2 |
| 20260508063059 | 36 | 330 | 2.6 | 7.8 | 0.00 | 0.01 | 0.01 | 88 | 1022.1 |
| 20260508061557 | 37 | 167 | 1.7 | 4.3 | 0.00 | 0.01 | 0.01 | 87 | 1021.9 |
| 20260508060110 | 38 | 146 | 0.0 | 7.8 | 0.00 | 0.01 | 0.01 | 87 | 1021.8 |
| 20260508054637 | 37 | 146 | 0.0 | 7.8 | 0.00 | 0.01 | 0.01 | 90 | 1021.6 |
| 20260508053053 | 36 | 129 | 0.9 | 7.8 | 0.00 | 0.01 | 0.01 | 88 | 1021.6 |
| 20260508051549 | 38 | 117 | 2.6 | 7.8 | 0.00 | 0.01 | 0.01 | 87 | 1021.4 |
| 20260508050047 | 37 | 211 | 0.0 | 7.8 | 0.00 | 0.01 | 0.01 | 90 | 1021.3 |
| 20260508044542 | 34 | 193 | 0.0 | 7.8 | 0.01 | 0.01 | 0.01 | 92 | 1021.3 |
| 20260508043040 | 34 | 9 | 0.0 | 7.8 | 0.01 | 0.01 | 0.01 | 93 | 1021.1 |
| 20260508041542 | 34 | 200 | 0.0 | 7.8 | 0.01 | 0.01 | 0.01 | 93 | 1021.0 |
| 20260508040038 | 34 | 246 | 0.9 | 7.8 | 0.01 | 0.01 | 0.01 | 92 | 1021.0 |
| 20260508034546 | 35 | 232 | 3.5 | 7.0 | 0.00 | 0.00 | 0.00 | 92 | 1021.0 |
| 20260508033035 | 34 | 243 | 0.0 | 5.2 | 0.00 | 0.00 | 0.00 | 94 | 1020.8 |
| 20260508031534 | 34 | 318 | 0.0 | 5.2 | 0.00 | 0.00 | 0.00 | 94 | 1020.6 |
| 20260508030031 | 34 | 318 | 0.0 | 5.2 | 0.00 | 0.00 | 0.00 | 94 | 1020.6 |
| 20260508024529 | 34 | 318 | 0.0 | 5.2 | 0.00 | 0.00 | 0.00 | 94 | 1020.6 |
| 20260508023027 | 33 | 318 | 0.0 | 5.2 | 0.00 | 0.00 | 0.00 | 94 | 1020.5 |
| 20260508021526 | 33 | 323 | 0.9 | 5.2 | 0.00 | 0.00 | 0.00 | 94 | 1020.4 |
| 20260508020025 | 33 | 308 | 1.7 | 5.2 | 0.00 | 0.00 | 0.00 | 93 | 1020.3 |
| 20260508014525 | 33 | 311 | 1.7 | 5.2 | 0.00 | 0.00 | 0.00 | 93 | 1020.1 |
| 20260508013019 | 33 | 314 | 3.5 | 4.3 | 0.00 | 0.00 | 0.00 | 93 | 1020.0 |
| 20260508011517 | 33 | 325 | 1.7 | 3.5 | 0.00 | 0.00 | 0.00 | 92 | 1019.8 |
| 20260508010026 | 33 | 309 | 0.9 | 3.5 | 0.00 | 0.00 | 0.00 | 90 | 1019.7 |
| 20260508004519 | 34 | 326 | 0.0 | 3.5 | 0.00 | 0.00 | 0.00 | 90 | 1019.5 |
| 20260508003009 | 33 | 330 | 0.9 | 3.5 | 0.00 | 0.00 | 0.00 | 90 | 1019.4 |
| 20260508001507 | 34 | 344 | 0.0 | 3.5 | 0.00 | 0.00 | 0.00 | 89 | 1019.2 |
| 20260508000006 | 34 | 318 | 0.9 | 3.5 | 0.00 | 0.00 | 0.00 | 89 | 1019.1 |
| 20260507234504 | 33 | 318 | 2.6 | 3.5 | 0.00 | 0.00 | 0.00 | 89 | 1019.0 |
| 20260507233003 | 33 | 330 | 1.7 | 3.5 | 0.00 | 0.00 | 0.00 | 89 | 1018.9 |
| 20260507231559 | 33 | 308 | 2.6 | 4.3 | 0.00 | 0.00 | 0.00 | 90 | 1018.9 |
| 20260507230056 | 33 | 6 | 0.0 | 3.5 | 0.00 | 0.00 | 0.00 | 87 | 1018.7 |
| 20260507224554 | 33 | 329 | 0.9 | 3.5 | 0.00 | 0.00 | 0.00 | 89 | 1018.6 |
| 20260507223052 | 33 | 346 | 0.9 | 3.5 | 0.00 | 0.00 | 0.00 | 87 | 1018.5 |
| 20260507221548 | 34 | 321 | 0.0 | 1.7 | 0.00 | 0.00 | 0.00 | 85 | 1018.4 |
| 20260507220045 | 34 | 318 | 0.9 | 1.7 | 0.00 | 0.00 | 0.00 | 87 | 1018.3 |
| 20260507214547 | 34 | 347 | 0.9 | 1.7 | 0.00 | 0.00 | 0.00 | 84 | 1018.2 |
| 20260507213041 | 35 | 332 | 0.0 | 3.5 | 0.00 | 0.00 | 0.00 | 86 | 1018.2 |
| 20260507211543 | 34 | 327 | 0.9 | 3.5 | 0.00 | 0.00 | 0.00 | 86 | 1018.0 |
| 20260507210038 | 34 | 321 | 1.7 | 3.5 | 0.00 | 0.00 | 0.00 | 87 | 1017.7 |
| 20260507204532 | 36 | 322 | 1.7 | 3.5 | 0.00 | 0.00 | 0.00 | 84 | 1017.5 |
| 20260507203036 | 36 | 290 | 1.7 | 2.6 | 0.00 | 0.00 | 0.00 | 85 | 1017.5 |
| 20260507201532 | 36 | 297 | 0.9 | 2.6 | 0.00 | 0.00 | 0.00 | 84 | 1017.5 |
| 20260507200030 | 36 | 288 | 0.9 | 2.6 | 0.00 | 0.00 | 0.00 | 82 | 1017.3 |
| 20260507194530 | 37 | 282 | 0.9 | 5.2 | 0.00 | 0.00 | 0.00 | 81 | 1017.1 |
| 20260507193033 | 37 | 286 | 2.6 | 13.9 | 0.00 | 0.00 | 0.00 | 81 | 1017.0 |
| 20260507191524 | 37 | 252 | 2.6 | 13.9 | 0.00 | 0.00 | 0.00 | 81 | 1017.0 |
| 20260507190026 | 36 | 297 | 6.1 | 13.9 | 0.00 | 0.00 | 0.00 | 83 | 1016.8 |
| 20260507184519 | 40 | 266 | 5.2 | 8.7 | 0.00 | 0.00 | 0.00 | 72 | 1016.7 |
| 20260507183034 | 40 | 275 | 2.6 | 8.7 | 0.00 | 0.00 | 0.00 | 70 | 1016.5 |
| 20260507181516 | 40 | 296 | 2.6 | 8.7 | 0.00 | 0.00 | 0.00 | 69 | 1016.3 |
| 20260507180015 | 42 | 288 | 4.3 | 8.7 | 0.00 | 0.00 | 0.00 | 65 | 1016.3 |
| 20260507174516 | 42 | 231 | 1.7 | 7.8 | 0.00 | 0.00 | 0.00 | 65 | 1016.1 |
| 20260507173012 | 42 | 246 | 4.3 | 7.8 | 0.00 | 0.00 | 0.00 | 65 | 1016.1 |
| 20260507171511 | 41 | 246 | 3.5 | 9.6 | 0.00 | 0.00 | 0.00 | 65 | 1016.1 |
| 20260507170010 | 41 | 251 | 4.3 | 9.6 | 0.00 | 0.00 | 0.00 | 67 | 1016.0 |
| 20260507164508 | 41 | 277 | 5.2 | 9.6 | 0.00 | 0.00 | 0.00 | 73 | 1015.9 |
| 20260507163008 | 41 | 230 | 4.3 | 7.8 | 0.00 | 0.00 | 0.00 | 74 | 1015.8 |
| 20260507161508 | 40 | 246 | 2.6 | 8.7 | 0.00 | 0.00 | 0.00 | 74 | 1015.8 |
| 20260507160017 | 41 | 269 | 4.3 | 8.7 | 0.00 | 0.00 | 0.00 | 69 | 1015.7 |
| 20260507154503 | 42 | 256 | 3.5 | 7.0 | 0.00 | 0.00 | 0.00 | 69 | 1015.6 |
| 20260507153004 | 42 | 260 | 2.6 | 7.8 | 0.00 | 0.00 | 0.00 | 73 | 1015.6 |
| 20260507151600 | 41 | 257 | 6.1 | 9.6 | 0.00 | 0.00 | 0.00 | 68 | 1015.5 |
| 20260507144554 | 0 | 0.0 | 0.0 | 0.00 | 0.00 | 0.00 | 1015.4 | ||
| 20260507143051 | 0 | 0.0 | 0.0 | 0.00 | 0.00 | 0.00 | 1015.3 | ||
| 20260507141546 | 0 | 0.0 | 0.0 | 0.00 | 0.00 | 0.00 | 1015.2 | ||
| 20260507140043 | 41 | 273 | 4.3 | 0.0 | 0.00 | 0.00 | 0.00 | 72 | 1015.0 |
| 20260507134537 | 40 | 273 | 1.7 | 0.0 | 0.00 | 0.00 | 0.00 | 73 | 1015.0 |
| 20260507133035 | 41 | 310 | 2.6 | 0.0 | 0.00 | 0.00 | 0.00 | 73 | 1015.0 |
| 20260507131535 | 40 | 329 | 4.3 | 0.0 | 0.00 | 0.00 | 0.00 | 83 | 1014.9 |
| 20260507130031 | 38 | 346 | 7.0 | 0.0 | 0.00 | 0.00 | 0.00 | 80 | 1014.9 |
| 20260507124545 | 37 | 318 | 7.0 | 0.0 | 0.00 | 0.00 | 0.00 | 82 | 1014.9 |
| 20260507123027 | 39 | 317 | 7.0 | 0.0 | 0.00 | 0.00 | 0.00 | 76 | 1014.9 |